Accueil
METAR-TAF:

METAR-TAF

Aéroports :

Joplin Regional Airport

Joplin, Missouri, États-Unis

latitude: 37-09-22N, longitude: 094-30-02W, altitude: 299 m

Observation

Le bulletin a été fait il y a 1 heure et 6 minutes, à 02:53 UTC
Vent 7 kt de nord-est
Température 12°C
Humidité 94%
Pression 1014 hPa
Visibilité: 16.1 km
Ciel couvert à une hauteur de 7000 ft

METAR: KJLN 280253Z AUTO 04007KT 10SM OVC070 12/11 A2995 RMK AO2 RAE42 SLP136 P0003 60007 T01220111 50004

Heure: 22:59 (03:59 UTC)

Prévision

Le bulletin a été fait il y a 14 minutes, à 03:45 UTC
Prévision valable du 28 à 04 UTC au 28 à 24 UTC
Vent 8 kt de nord
Visibilité: 10 km
Ciel couvert à une hauteur de 6000 ft
A partir de 28 à 2200 UTC
Vent 11 kt de nord/nord-ouest avec des rafales jusqu'à 19 kt
Visibilité: 10 km
Quelques nuages à une hauteur de 12000 ft

TAF: KJLN 280345Z 2804/2824 01008KT P6SM OVC060 FM282200 33011G19KT P6SM FEW120

Observations et prévisions météorologiques de plus de 4000 aéroports (messages METAR et TAF).

Les stations disponibles sont représentées par des disques jaunes et rouges sur la carte.

Passer la souris dessus pour voir le nom de la station.

Cliquer dessus pour voir les observations et prévisions météorologiques.

Pour changer de carte: cliquez sur les boutons verts avec une croix noire pour zoomer, sur le bouton vert avec un tiret pour effectuer un zoom arrière, ou sur les flèches vertes pour les cartes adjacentes.


METAR-TAF: